Time;durP1;ratioP1;P1;durP2;ratioP2;P2;SDS_P1;SDS_P2;PMS_P1;PMS_P2;Temp;Humidity;BMP_temperature;BMP_pressure;BME280_temperature;BME280_humidity;BME280_pressure;Samples;Min_cycle;Max_cycle;Signal;HPM_P1;HPM_P2
2023/05/30 00:04:42;;;;;;;0.00;0.00;;;;;;;15.94;100.00;102642.34;10457699;28;20037;-81
2023/05/30 00:09:44;;;;;;;2.20;0.57;;;;;;;15.98;100.00;102638.13;10450705;28;20041;-81
2023/05/30 00:14:47;;;;;;;0.20;0.20;;;;;;;16.00;100.00;102642.56;10439548;28;20415;-81
2023/05/30 00:19:52;;;;;;;0.20;0.10;;;;;;;16.48;100.00;102641.41;10452979;28;20440;-81
2023/05/30 00:24:55;;;;;;;0.00;0.00;;;;;;;16.28;100.00;102650.31;10461080;28;20045;-81
2023/05/30 00:29:57;;;;;;;0.32;0.25;;;;;;;17.69;91.91;102655.03;10461408;28;20087;-81
2023/05/30 00:34:58;;;;;;;0.00;0.00;;;;;;;16.74;95.86;102656.88;10452135;28;20072;-80
2023/05/30 00:40:00;;;;;;;0.20;0.20;;;;;;;17.21;94.25;102648.63;10439825;28;20056;-81
2023/05/30 00:45:02;;;;;;;0.63;0.57;;;;;;;17.51;93.55;102659.78;10440173;28;20055;-81
2023/05/30 00:50:06;;;;;;;0.00;0.00;;;;;;;16.65;96.11;102659.19;10470080;28;20049;-81
2023/05/30 00:55:08;;;;;;;0.00;0.00;;;;;;;16.31;97.29;102659.09;10457302;28;20056;-81
2023/05/30 01:00:12;;;;;;;0.00;0.00;;;;;;;15.98;100.00;102657.22;10457900;28;20224;-84
2023/05/30 01:05:14;;;;;;;0.00;0.00;;;;;;;15.90;100.00;102656.09;10457933;28;20104;-81
2023/05/30 01:10:17;;;;;;;0.88;0.22;;;;;;;15.79;100.00;102658.31;10471537;28;20488;-81
2023/05/30 01:15:32;;;;;;;0.00;0.00;;;;;;;15.85;100.00;102655.94;10443583;28;20063;-81
2023/05/30 01:20:40;;;;;;;0.43;0.20;;;;;;;16.04;100.00;102653.94;10443671;28;20049;-81
2023/05/30 01:26:01;;;;;;;3.20;0.65;;;;;;;15.75;100.00;102659.03;10435490;28;20043;-81
2023/05/30 01:31:02;;;;;;;;;;;;;;;15.79;100.00;102663.53;10451476;28;20139;-80
2023/05/30 01:36:05;;;;;;;0.00;0.00;;;;;;;15.21;100.00;102652.94;10474033;28;20039;-81
2023/05/30 01:41:40;;;;;;;0.00;0.00;;;;;;;16.57;100.00;102665.94;10446770;28;20048;-80
2023/05/30 01:46:51;;;;;;;0.00;0.00;;;;;;;15.46;100.00;102664.16;10448653;28;20037;-81
2023/05/30 01:51:58;;;;;;;0.00;0.00;;;;;;;15.89;100.00;102669.06;10469925;28;20143;-81
2023/05/30 01:57:11;;;;;;;1.20;0.52;;;;;;;15.41;100.00;102676.09;10454471;28;20045;-81
2023/05/30 02:02:13;;;;;;;3.28;0.13;;;;;;;14.90;100.00;102688.19;10453079;28;20052;-81
2023/05/30 02:07:15;;;;;;;0.00;0.00;;;;;;;15.31;100.00;102679.22;10469245;28;20051;-81
2023/05/30 02:12:17;;;;;;;0.00;0.00;;;;;;;14.96;100.00;102686.63;10436117;28;20462;-81
2023/05/30 02:17:20;;;;;;;0.20;0.10;;;;;;;15.33;100.00;102683.66;10434540;28;20412;-81
2023/05/30 02:22:22;;;;;;;0.85;0.28;;;;;;;15.46;100.00;102690.13;10431816;28;20045;-81
2023/05/30 02:27:27;;;;;;;0.25;0.25;;;;;;;15.92;100.00;102692.53;10463502;28;20052;-81
2023/05/30 02:32:29;;;;;;;3.90;0.80;;;;;;;16.27;100.00;102692.78;10451346;28;20126;-81
2023/05/30 02:37:30;;;;;;;3.85;0.30;;;;;;;15.89;100.00;102700.25;10462087;28;20512;-82
2023/05/30 02:42:33;;;;;;;0.00;0.00;;;;;;;16.17;100.00;102697.69;10481020;28;20055;-81
2023/05/30 02:47:34;;;;;;;0.00;0.00;;;;;;;16.21;100.00;102708.16;10462196;28;20047;-81
2023/05/30 02:52:37;;;;;;;0.00;0.00;;;;;;;16.35;100.00;102701.69;10439139;28;20048;-81
2023/05/30 02:57:38;;;;;;;0.75;0.28;;;;;;;15.94;100.00;102709.06;10441063;28;20053;-81
2023/05/30 03:03:10;;;;;;;1.60;0.30;;;;;;;15.63;100.00;102708.00;10455371;28;20114;-81
2023/05/30 03:08:17;;;;;;;0.10;0.10;;;;;;;16.19;100.00;102715.94;10454921;28;20060;-81
2023/05/30 03:13:26;;;;;;;0.20;0.10;;;;;;;15.92;100.00;102718.53;10461190;28;20533;-81
2023/05/30 03:18:29;;;;;;;0.50;0.25;;;;;;;16.13;100.00;102719.22;10444608;28;20051;-81
2023/05/30 03:23:31;;;;;;;1.52;1.08;;;;;;;15.76;100.00;102720.56;10432000;28;20037;-82
2023/05/30 03:28:33;;;;;;;0.00;0.00;;;;;;;16.04;100.00;102721.53;10483413;28;20094;-81
2023/05/30 03:33:50;;;;;;;1.17;0.57;;;;;;;16.46;100.00;102712.41;10460715;28;20044;-81
2023/05/30 03:38:54;;;;;;;0.50;0.30;;;;;;;16.65;100.00;102711.25;10448258;28;20088;-81
2023/05/30 03:43:55;;;;;;;0.00;0.00;;;;;;;16.65;100.00;102716.44;10466390;28;20040;-81
2023/05/30 03:48:58;;;;;;;0.28;0.28;;;;;;;16.30;100.00;102718.88;10460668;28;20561;-81
2023/05/30 03:53:59;;;;;;;0.00;0.00;;;;;;;16.36;100.00;102723.38;10470306;28;20037;-82
2023/05/30 03:59:01;;;;;;;0.35;0.10;;;;;;;16.25;100.00;102726.53;10475194;28;20483;-81
2023/05/30 04:04:03;;;;;;;0.17;0.17;;;;;;;16.31;100.00;102715.44;10445241;28;20048;-81
2023/05/30 04:09:05;;;;;;;0.08;0.03;;;;;;;16.06;100.00;102727.66;10451272;28;20053;-81
2023/05/30 04:14:07;;;;;;;1.55;0.30;;;;;;;16.20;100.00;102727.19;10446164;28;20045;-81
2023/05/30 04:19:08;;;;;;;7.47;0.43;;;;;;;16.09;100.00;102726.84;10438460;28;20044;-82
2023/05/30 04:24:12;;;;;;;0.10;0.10;;;;;;;16.05;100.00;102727.59;10442123;28;20098;-81
2023/05/30 04:29:14;;;;;;;0.00;0.00;;;;;;;16.26;100.00;102723.09;10451679;28;20495;-81
2023/05/30 04:34:18;;;;;;;0.20;0.20;;;;;;;16.31;100.00;102726.72;10448024;28;20032;-81
2023/05/30 04:39:22;;;;;;;1.85;0.20;;;;;;;16.46;100.00;102726.31;10446075;28;20135;-81
2023/05/30 04:44:24;;;;;;;0.15;0.13;;;;;;;15.99;100.00;102734.38;10447303;28;20098;-81
2023/05/30 04:49:26;;;;;;;0.28;0.25;;;;;;;16.78;100.00;102722.91;10436614;28;20055;-81
2023/05/30 04:54:28;;;;;;;0.35;0.20;;;;;;;16.58;100.00;102722.31;10442745;28;20052;-81
2023/05/30 04:59:30;;;;;;;0.17;0.17;;;;;;;16.70;100.00;102721.78;10444495;28;20049;-81
2023/05/30 05:04:31;;;;;;;0.00;0.00;;;;;;;16.97;100.00;102719.16;10467088;28;20500;-81
2023/05/30 05:09:33;;;;;;;0.50;0.25;;;;;;;16.91;100.00;102724.16;10420454;28;20052;-81
2023/05/30 05:14:34;;;;;;;0.40;0.25;;;;;;;16.27;100.00;102724.00;10432846;28;20036;-82
2023/05/30 05:19:39;;;;;;;0.30;0.20;;;;;;;17.50;100.00;102723.19;10480767;28;20573;-81
2023/05/30 05:24:40;;;;;;;0.20;0.20;;;;;;;17.35;100.00;102721.94;10446108;28;20231;-81
2023/05/30 05:29:42;;;;;;;1.15;0.40;;;;;;;17.62;100.00;102726.09;10451014;28;20060;-82
2023/05/30 05:34:44;;;;;;;0.20;0.20;;;;;;;17.32;100.00;102734.00;10459224;28;20040;-81
2023/05/30 05:39:45;;;;;;;0.30;0.22;;;;;;;17.95;100.00;102725.22;10441559;28;20052;-81
2023/05/30 05:44:47;;;;;;;0.28;0.22;;;;;;;17.09;100.00;102724.69;10457001;28;20043;-82
2023/05/30 05:49:48;;;;;;;0.15;0.15;;;;;;;17.53;100.00;102731.09;10444037;28;20045;-82
2023/05/30 05:54:50;;;;;;;1.35;0.47;;;;;;;18.04;98.60;102734.97;10466539;28;20063;-81
2023/05/30 05:59:52;;;;;;;0.93;0.40;;;;;;;18.08;97.33;102734.22;10442130;28;20049;-81
2023/05/30 06:04:53;;;;;;;1.65;0.52;;;;;;;18.09;96.91;102741.22;10445656;28;20578;-80
2023/05/30 06:09:55;;;;;;;0.05;0.05;;;;;;;18.33;96.98;102751.34;10448582;28;20060;-80
2023/05/30 06:14:57;;;;;;;1.63;0.35;;;;;;;17.43;97.89;102751.69;10458911;28;20049;-80
2023/05/30 06:19:58;;;;;;;4.20;1.10;;;;;;;17.41;97.64;102748.13;10432629;28;20466;-82
2023/05/30 06:25:00;;;;;;;0.95;0.75;;;;;;;16.93;99.07;102743.34;10455847;28;20037;-82
2023/05/30 06:30:03;;;;;;;1.00;0.90;;;;;;;17.45;97.62;102738.69;10441948;28;20049;-82
2023/05/30 06:35:05;;;;;;;0.13;0.13;;;;;;;17.14;100.00;102748.25;10457137;28;20449;-82
2023/05/30 06:40:08;;;;;;;0.20;0.20;;;;;;;18.02;95.85;102747.13;10438391;28;20055;-81
2023/05/30 06:45:10;;;;;;;0.00;0.00;;;;;;;17.68;95.32;102752.34;10440020;28;20048;-81
2023/05/30 06:50:12;;;;;;;0.82;0.40;;;;;;;18.34;91.22;102760.94;10437194;28;20292;-82
2023/05/30 06:55:14;;;;;;;0.70;0.35;;;;;;;17.72;95.06;102758.50;10446294;28;20057;-82
2023/05/30 07:00:16;;;;;;;1.17;0.40;;;;;;;18.58;91.65;102753.59;10454393;28;20048;-81
2023/05/30 07:05:18;;;;;;;0.22;0.10;;;;;;;18.88;90.45;102748.16;10443895;28;20052;-81
2023/05/30 07:10:20;;;;;;;1.13;0.50;;;;;;;18.94;90.05;102753.56;10441314;28;20060;-81
2023/05/30 07:15:21;;;;;;;1.85;0.50;;;;;;;19.51;85.79;102748.53;10439921;28;20128;-81
2023/05/30 07:20:23;;;;;;;0.20;0.20;;;;;;;18.94;89.56;102758.78;10443274;28;20041;-80
2023/05/30 07:25:25;;;;;;;0.03;0.03;;;;;;;18.42;89.10;102766.31;10453582;28;20045;-81
2023/05/30 07:30:27;;;;;;;0.95;0.45;;;;;;;18.68;90.62;102761.69;10454721;28;20049;-81
2023/05/30 07:35:28;;;;;;;0.43;0.43;;;;;;;18.61;89.39;102769.34;10453161;28;20048;-82
2023/05/30 07:40:30;;;;;;;0.00;0.00;;;;;;;21.32;80.96;102755.53;10451773;28;20074;-82
2023/05/30 07:45:32;;;;;;;0.30;0.20;;;;;;;21.54;79.60;102751.38;10452553;28;20076;-81
2023/05/30 07:50:33;;;;;;;0.25;0.25;;;;;;;22.02;77.89;102754.41;10455526;28;20040;-81
2023/05/30 07:55:35;;;;;;;0.10;0.10;;;;;;;23.16;76.66;102753.28;10463986;28;20056;-81
2023/05/30 08:00:36;;;;;;;0.40;0.20;;;;;;;21.67;77.05;102755.03;10445734;28;20044;-82
2023/05/30 08:05:38;;;;;;;0.45;0.17;;;;;;;22.52;74.47;102752.16;10441336;28;20243;-80
2023/05/30 08:10:40;;;;;;;3.13;0.68;;;;;;;22.56;76.17;102751.31;10454800;28;20418;-81
2023/05/30 08:15:43;;;;;;;2.55;0.35;;;;;;;22.24;76.31;102749.31;10457414;28;20210;-81
2023/05/30 08:20:45;;;;;;;0.60;0.30;;;;;;;22.43;70.95;102751.25;10440208;28;20047;-80
2023/05/30 08:25:47;;;;;;;0.10;0.10;;;;;;;23.56;78.28;102738.47;10454387;28;20037;-81
2023/05/30 08:30:49;;;;;;;0.63;0.22;;;;;;;23.36;73.87;102740.22;10482219;28;20168;-81
2023/05/30 08:35:51;;;;;;;0.55;0.38;;;;;;;23.64;72.10;102740.22;10457920;28;20465;-82
2023/05/30 08:40:53;;;;;;;1.02;0.65;;;;;;;24.04;67.92;102735.84;10459677;28;20476;-82
2023/05/30 08:45:55;;;;;;;2.38;1.15;;;;;;;24.42;70.55;102725.22;10468092;28;20052;-82
2023/05/30 08:50:58;;;;;;;0.30;0.30;;;;;;;22.72;69.26;102731.22;10472848;28;20045;-81
2023/05/30 08:56:10;;;;;;;0.38;0.38;;;;;;;25.49;65.94;102707.97;10445345;28;20048;-81
2023/05/30 09:01:12;;;;;;;0.17;0.17;;;;;;;25.15;65.58;102713.50;10447868;28;20123;-82
2023/05/30 09:06:14;;;;;;;3.53;0.25;;;;;;;24.49;64.94;102716.41;10451884;28;20052;-82
2023/05/30 09:11:16;;;;;;;0.20;0.20;;;;;;;26.00;60.82;102703.13;10413775;28;20114;-82
2023/05/30 09:16:18;;;;;;;0.10;0.10;;;;;;;22.52;69.66;102723.28;10460327;28;20040;-83
2023/05/30 09:21:20;;;;;;;0.10;0.10;;;;;;;22.29;70.57;102721.38;10432140;28;20049;-83
2023/05/30 09:26:21;;;;;;;0.52;0.20;;;;;;;23.01;72.63;102712.94;10449748;28;20041;-82
2023/05/30 09:31:23;;;;;;;0.05;0.05;;;;;;;23.06;68.15;102705.94;10455389;28;20156;-83
2023/05/30 09:36:26;;;;;;;1.58;0.52;;;;;;;25.45;66.52;102700.09;10442213;28;20102;-82
2023/05/30 09:41:28;;;;;;;0.10;0.10;;;;;;;23.28;66.69;102700.75;10447867;28;20242;-83
2023/05/30 09:46:30;;;;;;;6.03;0.32;;;;;;;24.31;67.21;102696.28;10450888;28;20049;-82
2023/05/30 09:51:32;;;;;;;0.20;0.10;;;;;;;26.17;61.95;102692.41;10449574;28;20160;-82
2023/05/30 09:56:42;;;;;;;0.95;0.68;;;;;;;24.63;66.82;102682.97;10430594;28;20048;-81
2023/05/30 10:01:44;;;;;;;;;;;;;;;26.55;58.59;102676.06;10458027;28;20053;-83
2023/05/30 10:06:48;;;;;;;0.00;0.00;;;;;;;24.34;65.10;102685.75;10452339;28;19925;-82
2023/05/30 10:11:51;;;;;;;1.23;0.63;;;;;;;25.85;62.13;102675.09;10461644;28;20049;-82
2023/05/30 10:16:59;;;;;;;0.30;0.30;;;;;;;24.88;62.16;102682.91;10441667;28;20074;-83
2023/05/30 10:22:04;;;;;;;0.10;0.10;;;;;;;26.16;61.33;102678.34;10447954;28;20060;-81
2023/05/30 10:27:09;;;;;;;0.25;0.25;;;;;;;24.46;62.39;102690.09;10446863;28;20090;-83
2023/05/30 10:32:15;;;;;;;1.40;0.82;;;;;;;26.72;58.45;102680.25;10423904;28;20066;-81
2023/05/30 10:37:17;;;;;;;0.45;0.20;;;;;;;28.31;58.60;102672.31;10435694;28;20049;-82
2023/05/30 10:42:29;;;;;;;0.28;0.28;;;;;;;26.18;57.86;102681.81;10447742;28;20053;-83
2023/05/30 10:47:43;;;;;;;0.30;0.30;;;;;;;25.24;60.90;102669.47;10425696;28;20051;-83
2023/05/30 10:52:46;;;;;;;0.00;0.00;;;;;;;25.77;59.85;102669.91;10430477;28;20481;-82
2023/05/30 10:57:48;;;;;;;0.10;0.10;;;;;;;26.57;60.91;102663.72;10445467;28;20045;-82
2023/05/30 11:02:54;;;;;;;0.00;0.00;;;;;;;25.80;58.52;102665.47;10454675;28;20052;-82
2023/05/30 11:08:01;;;;;;;0.03;0.03;;;;;;;27.05;58.32;102649.81;10456592;28;20133;-82
2023/05/30 11:13:10;;;;;;;0.00;0.00;;;;;;;26.28;57.39;102649.13;10459323;28;20110;-85
2023/05/30 11:18:17;;;;;;;0.40;0.20;;;;;;;26.56;59.16;102643.47;10459868;28;20071;-83
2023/05/30 11:23:19;;;;;;;0.65;0.47;;;;;;;27.32;57.72;102631.78;10442995;28;20526;-82
2023/05/30 11:28:33;;;;;;;1.23;0.55;;;;;;;26.88;59.74;102636.88;10471389;28;20047;-81
2023/05/30 11:33:35;;;;;;;0.60;0.60;;;;;;;26.81;56.96;102632.56;10433889;28;20479;-83
2023/05/30 11:38:43;;;;;;;0.10;0.00;;;;;;;25.29;60.12;102636.03;10472334;28;20227;-83
2023/05/30 11:43:45;;;;;;;0.40;0.40;;;;;;;26.44;58.59;102633.06;10452279;28;20049;-83
2023/05/30 11:48:46;;;;;;;0.10;0.10;;;;;;;26.05;56.16;102628.25;10456700;28;20545;-82
2023/05/30 11:53:48;;;;;;;0.10;0.10;;;;;;;26.44;56.15;102611.94;10435262;28;20095;-83
2023/05/30 11:58:50;;;;;;;0.10;0.10;;;;;;;26.45;57.78;102608.41;10419792;28;20128;-84
2023/05/30 12:03:56;;;;;;;0.10;0.10;;;;;;;27.27;57.10;102601.00;10450812;28;20044;-83
2023/05/30 12:08:58;;;;;;;0.85;0.35;;;;;;;26.63;58.75;102611.66;10436677;28;20412;-82
2023/05/30 12:14:00;;;;;;;0.38;0.28;;;;;;;25.72;58.89;102611.88;10444746;28;20060;-82
2023/05/30 12:19:01;;;;;;;0.13;0.08;;;;;;;25.84;59.03;102608.25;10456074;28;20495;-83
2023/05/30 12:24:09;;;;;;;1.25;0.63;;;;;;;26.69;60.83;102603.66;10433745;28;20076;-81
2023/05/30 12:29:10;;;;;;;0.25;0.25;;;;;;;26.39;59.69;102601.41;10445946;28;20057;-82
2023/05/30 12:34:13;;;;;;;2.00;0.43;;;;;;;26.99;58.98;102596.19;10456577;28;20478;-82
2023/05/30 12:39:15;;;;;;;0.28;0.28;;;;;;;26.39;61.47;102600.56;10459749;28;20412;-82
2023/05/30 12:44:17;;;;;;;0.68;0.32;;;;;;;27.13;60.66;102588.88;10454911;28;20115;-83
2023/05/30 12:49:19;;;;;;;1.23;0.50;;;;;;;26.57;63.20;102594.13;10452712;28;20049;-81
2023/05/30 12:54:25;;;;;;;1.17;1.08;;;;;;;25.29;65.21;102596.44;10460655;28;20056;-81
2023/05/30 12:59:27;;;;;;;0.75;0.45;;;;;;;25.13;67.16;102593.94;10434901;28;20077;-83
2023/05/30 13:04:29;;;;;;;0.30;0.22;;;;;;;25.45;67.12;102586.66;10436310;28;20041;-84
2023/05/30 13:09:30;;;;;;;1.17;0.60;;;;;;;24.40;69.90;102585.63;10463619;28;20049;-83
2023/05/30 13:14:32;;;;;;;0.60;0.55;;;;;;;25.79;66.86;102588.94;10459891;28;20101;-82
2023/05/30 13:19:36;;;;;;;0.30;0.30;;;;;;;25.15;67.67;102576.34;10438935;28;20056;-81
2023/05/30 13:24:38;;;;;;;0.35;0.30;;;;;;;24.50;72.47;102587.31;10470474;28;20748;-82
2023/05/30 13:29:44;;;;;;;0.20;0.20;;;;;;;24.03;75.33;102581.41;10449711;28;20465;-83
2023/05/30 13:34:45;;;;;;;1.20;0.50;;;;;;;24.80;76.29;102579.25;10440864;28;20511;-83
2023/05/30 13:39:48;;;;;;;2.25;0.65;;;;;;;24.57;75.42;102590.81;10451116;28;20052;-82
2023/05/30 13:44:50;;;;;;;0.00;0.00;;;;;;;24.73;74.89;102582.84;10439976;28;20053;-82
2023/05/30 13:49:52;;;;;;;2.13;0.85;;;;;;;24.23;75.40;102583.09;10445146;28;20047;-83
2023/05/30 13:54:54;;;;;;;0.90;0.45;;;;;;;23.25;80.23;102579.81;10438749;28;20037;-83
2023/05/30 13:59:55;;;;;;;0.20;0.20;;;;;;;23.77;82.76;102589.34;10434030;28;20424;-83
2023/05/30 14:04:57;;;;;;;0.15;0.15;;;;;;;23.11;82.27;102593.81;10460798;28;20500;-83
2023/05/30 14:09:59;;;;;;;1.45;0.30;;;;;;;23.17;82.26;102587.69;10439853;28;20057;-83
2023/05/30 14:15:01;;;;;;;1.33;0.50;;;;;;;24.66;79.22;102584.59;10449662;28;20073;-84
2023/05/30 14:20:04;;;;;;;0.32;0.32;;;;;;;23.33;80.78;102588.56;10455866;28;20562;-82
2023/05/30 14:25:06;;;;;;;0.85;0.25;;;;;;;23.30;81.55;102583.28;10459126;28;20450;-84
2023/05/30 14:30:12;;;;;;;1.23;0.93;;;;;;;23.00;83.25;102585.00;10433844;28;20102;-83
2023/05/30 14:35:15;;;;;;;0.10;0.10;;;;;;;22.36;85.53;102599.75;10449141;28;20053;-83
2023/05/30 14:40:17;;;;;;;0.47;0.25;;;;;;;23.98;79.47;102588.44;10439699;28;20041;-83
2023/05/30 14:45:19;;;;;;;0.40;0.28;;;;;;;23.42;84.34;102585.91;10438419;28;20045;-82
2023/05/30 14:50:22;;;;;;;0.20;0.17;;;;;;;22.92;85.82;102585.03;10453694;28;20060;-83
2023/05/30 14:55:23;;;;;;;0.22;0.20;;;;;;;23.17;81.75;102581.53;10453117;28;20043;-82
2023/05/30 15:00:25;;;;;;;0.28;0.28;;;;;;;23.45;80.58;102578.03;10457755;28;20047;-81
2023/05/30 15:05:27;;;;;;;0.22;0.22;;;;;;;24.31;79.45;102576.00;10432099;28;20041;-81
2023/05/30 15:10:29;;;;;;;1.65;0.63;;;;;;;22.73;82.84;102586.75;10442275;28;20059;-82
2023/05/30 15:15:31;;;;;;;0.50;0.20;;;;;;;22.89;83.73;102581.53;10454228;28;20053;-82
2023/05/30 15:20:32;;;;;;;0.45;0.17;;;;;;;23.58;80.67;102583.25;10448054;28;20389;-82
2023/05/30 15:25:34;;;;;;;2.13;0.80;;;;;;;23.43;81.12;102573.66;10455485;28;20498;-82
2023/05/30 15:30:36;;;;;;;0.80;0.70;;;;;;;24.37;80.04;102575.09;10456991;28;20044;-82
2023/05/30 15:35:37;;;;;;;0.40;0.30;;;;;;;23.57;81.19;102576.22;10467157;28;20041;-82
2023/05/30 15:40:39;;;;;;;0.20;0.10;;;;;;;22.65;83.30;102570.09;10455542;28;20033;-83
2023/05/30 15:45:41;;;;;;;0.93;0.32;;;;;;;23.96;81.27;102563.88;10441771;28;20495;-81
2023/05/30 15:50:42;;;;;;;0.30;0.15;;;;;;;22.34;82.54;102577.84;10451422;28;20056;-82
2023/05/30 15:55:45;;;;;;;0.35;0.22;;;;;;;22.63;83.12;102574.47;10438920;28;20037;-83
2023/05/30 16:00:47;;;;;;;0.22;0.22;;;;;;;23.31;83.17;102564.00;10462958;28;20132;-83
2023/05/30 16:05:49;;;;;;;0.40;0.22;;;;;;;21.91;87.23;102572.44;10451725;28;20037;-84
2023/05/30 16:10:51;;;;;;;0.20;0.15;;;;;;;22.30;85.33;102570.84;10435367;28;20922;-83
2023/05/30 16:15:52;;;;;;;0.40;0.20;;;;;;;23.17;82.05;102563.13;10456263;28;20045;-83
2023/05/30 16:20:54;;;;;;;0.28;0.28;;;;;;;23.44;80.58;102559.63;10460402;28;20041;-82
2023/05/30 16:25:56;;;;;;;0.38;0.30;;;;;;;24.03;79.69;102560.34;10452005;28;20329;-82
2023/05/30 16:30:58;;;;;;;0.00;0.00;;;;;;;22.63;83.16;102558.69;10432799;28;20048;-83
2023/05/30 16:36:01;;;;;;;0.15;0.15;;;;;;;23.24;82.35;102557.88;10469561;28;20091;-81
2023/05/30 16:41:03;;;;;;;0.20;0.17;;;;;;;23.14;81.84;102553.50;10436433;28;20080;-82
2023/05/30 16:46:15;;;;;;;0.15;0.15;;;;;;;22.73;83.33;102555.22;10462834;28;20127;-82
2023/05/30 16:51:19;;;;;;;0.73;0.57;;;;;;;23.11;80.53;102548.22;10438924;28;20457;-83
2023/05/30 16:56:21;;;;;;;0.45;0.20;;;;;;;24.30;79.55;102537.41;10454110;28;20131;-81
2023/05/30 17:01:23;;;;;;;0.20;0.20;;;;;;;23.22;81.59;102558.75;10452877;28;20048;-83
2023/05/30 17:06:26;;;;;;;1.50;0.40;;;;;;;22.64;83.37;102560.47;10446729;28;20492;-80
2023/05/30 17:11:28;;;;;;;0.20;0.20;;;;;;;23.11;82.04;102558.72;10434756;28;20055;-81
2023/05/30 17:16:29;;;;;;;0.15;0.13;;;;;;;22.58;83.81;102556.06;10446698;28;20099;-80
2023/05/30 17:21:31;;;;;;;0.20;0.20;;;;;;;21.87;84.47;102567.16;10470278;28;20045;-82
2023/05/30 17:26:34;;;;;;;0.30;0.15;;;;;;;22.74;82.19;102549.09;10455438;28;20037;-81
2023/05/30 17:31:36;;;;;;;0.30;0.20;;;;;;;22.85;80.71;102559.63;10449811;28;20434;-82
2023/05/30 17:36:38;;;;;;;0.28;0.20;;;;;;;22.50;83.04;102561.31;10410369;28;20431;-82
2023/05/30 17:41:39;;;;;;;0.08;0.08;;;;;;;22.66;83.09;102558.72;10451939;28;20049;-81
2023/05/30 17:46:41;;;;;;;0.10;0.10;;;;;;;22.57;83.62;102574.44;10435473;28;20053;-81
2023/05/30 17:51:43;;;;;;;0.17;0.10;;;;;;;22.56;82.90;102570.06;10439218;28;20075;-83
2023/05/30 17:56:44;;;;;;;0.20;0.20;;;;;;;22.34;83.07;102576.09;10432403;28;20053;-80
2023/05/30 18:01:46;;;;;;;0.35;0.20;;;;;;;22.47;81.95;102577.03;10442074;28;20045;-82
2023/05/30 18:06:48;;;;;;;0.10;0.10;;;;;;;23.03;80.77;102568.38;10444622;28;20041;-81
2023/05/30 18:11:50;;;;;;;0.00;0.00;;;;;;;22.53;82.66;102572.66;10445553;28;20037;-80
2023/05/30 18:16:54;;;;;;;0.20;0.15;;;;;;;22.42;82.39;102575.28;10452936;28;20502;-81
2023/05/30 18:21:56;;;;;;;0.17;0.10;;;;;;;23.08;80.95;102580.66;10436777;28;20041;-81
2023/05/30 18:26:58;;;;;;;0.10;0.10;;;;;;;22.81;81.42;102585.00;10449741;28;20127;-81
2023/05/30 18:31:59;;;;;;;0.17;0.17;;;;;;;22.28;83.08;102594.44;10440312;28;20052;-82
2023/05/30 18:37:01;;;;;;;1.30;0.30;;;;;;;21.97;85.38;102596.94;10448526;28;20389;-80
2023/05/30 18:42:03;;;;;;;0.08;0.08;;;;;;;22.55;82.89;102586.69;10443196;28;20243;-81
2023/05/30 18:47:05;;;;;;;0.10;0.10;;;;;;;22.24;83.57;102582.19;10438201;28;20055;-82
2023/05/30 18:52:06;;;;;;;0.08;0.08;;;;;;;22.17;84.23;102583.06;10454418;28;20079;-81
2023/05/30 18:57:08;;;;;;;0.17;0.17;;;;;;;21.37;87.27;102591.28;10462222;28;20048;-82
2023/05/30 19:02:10;;;;;;;0.28;0.10;;;;;;;21.63;85.80;102588.03;10445161;28;20059;-81
2023/05/30 19:07:11;;;;;;;0.30;0.20;;;;;;;21.07;87.90;102587.53;10449671;28;20598;-82
2023/05/30 19:12:13;;;;;;;0.30;0.20;;;;;;;21.38;87.84;102582.56;10429906;28;20496;-81
2023/05/30 19:17:15;;;;;;;0.00;0.00;;;;;;;21.35;87.97;102577.28;10429533;28;20041;-81
2023/05/30 19:22:18;;;;;;;0.35;0.30;;;;;;;21.08;88.92;102584.06;10446796;28;20480;-82
2023/05/30 19:27:20;;;;;;;6.25;0.77;;;;;;;21.22;88.54;102585.06;10433957;28;20053;-81
2023/05/30 19:32:21;;;;;;;0.30;0.30;;;;;;;21.43;88.46;102585.22;10456853;28;20060;-82
2023/05/30 19:37:23;;;;;;;0.63;0.30;;;;;;;21.28;89.14;102583.34;10454215;28;20138;-82
2023/05/30 19:42:25;;;;;;;0.77;0.45;;;;;;;21.19;89.85;102582.41;10476480;28;20523;-81
2023/05/30 19:47:26;;;;;;;0.10;0.10;;;;;;;21.51;89.05;102588.78;10463499;28;20041;-81
2023/05/30 19:52:28;;;;;;;0.47;0.30;;;;;;;20.45;93.46;102586.88;10454098;28;20087;-82
2023/05/30 19:57:30;;;;;;;0.00;0.00;;;;;;;20.72;93.30;102586.34;10436331;28;20061;-82
2023/05/30 20:02:32;;;;;;;0.32;0.30;;;;;;;20.39;94.61;102581.56;10433660;28;20052;-81
2023/05/30 20:07:35;;;;;;;2.28;0.95;;;;;;;20.19;95.07;102587.47;10442869;28;20036;-82
2023/05/30 20:12:37;;;;;;;0.20;0.20;;;;;;;20.36;95.56;102576.31;10451714;28;20040;-82
2023/05/30 20:17:39;;;;;;;1.23;0.50;;;;;;;20.19;96.21;102594.41;10452636;28;20041;-82
2023/05/30 20:22:41;;;;;;;0.15;0.15;;;;;;;20.44;94.78;102587.72;10460024;28;20043;-81
2023/05/30 20:27:43;;;;;;;0.10;0.10;;;;;;;20.25;95.43;102590.16;10456262;28;20526;-82
2023/05/30 20:32:45;;;;;;;0.20;0.10;;;;;;;19.84;97.05;102593.09;10453526;28;20049;-82
2023/05/30 20:37:47;;;;;;;0.60;0.50;;;;;;;19.73;98.89;102586.78;10436503;28;20041;-82
2023/05/30 20:42:49;;;;;;;0.10;0.10;;;;;;;19.84;98.35;102587.88;10438791;28;20131;-82
2023/05/30 20:47:50;;;;;;;0.45;0.43;;;;;;;19.82;99.08;102589.53;10438900;28;20048;-82
2023/05/30 20:52:52;;;;;;;0.95;0.30;;;;;;;19.92;98.61;102590.59;10450472;28;20573;-82
2023/05/30 20:57:54;;;;;;;0.20;0.20;;;;;;;19.87;98.79;102582.66;10439298;28;20044;-82
2023/05/30 21:02:55;;;;;;;0.28;0.28;;;;;;;19.92;98.43;102591.44;10444761;28;20411;-82
2023/05/30 21:07:57;;;;;;;0.20;0.20;;;;;;;19.83;99.05;102596.53;10432482;28;20381;-82
2023/05/30 21:12:58;;;;;;;0.10;0.10;;;;;;;19.23;100.00;102593.88;10444248;28;20357;-82
2023/05/30 21:18:00;;;;;;;0.75;0.35;;;;;;;19.81;99.49;102598.25;10428920;28;20055;-82
2023/05/30 21:23:02;;;;;;;1.20;0.77;;;;;;;19.89;99.01;102585.28;10456117;28;20686;-81
2023/05/30 21:28:04;;;;;;;0.20;0.20;;;;;;;20.22;97.49;102582.25;10458677;28;20045;-81
2023/05/30 21:33:06;;;;;;;0.13;0.10;;;;;;;19.63;100.00;102591.88;10431403;28;20107;-82
2023/05/30 21:38:08;;;;;;;0.32;0.17;;;;;;;19.86;98.99;102591.38;10430354;28;20048;-81
2023/05/30 21:43:12;;;;;;;0.28;0.17;;;;;;;19.68;100.00;102598.94;10449064;28;20036;-82
2023/05/30 21:48:14;;;;;;;1.05;0.50;;;;;;;19.65;99.85;102602.38;10458540;28;20048;-81
2023/05/30 21:53:16;;;;;;;0.10;0.10;;;;;;;19.62;100.00;102597.94;10433732;28;20052;-81
2023/05/30 21:58:18;;;;;;;0.15;0.08;;;;;;;19.36;100.00;102600.16;10456371;28;20488;-81
2023/05/30 22:03:20;;;;;;;0.00;0.00;;;;;;;19.32;100.00;102594.00;10447329;28;20060;-81
2023/05/30 22:08:22;;;;;;;0.20;0.20;;;;;;;19.76;100.00;102594.69;10449892;28;20072;-82
2023/05/30 22:13:23;;;;;;;0.20;0.10;;;;;;;19.41;100.00;102588.06;10441481;28;20056;-81
2023/05/30 22:18:25;;;;;;;0.05;0.05;;;;;;;19.09;100.00;102584.91;10438861;28;20041;-82
2023/05/30 22:23:27;;;;;;;0.43;0.32;;;;;;;18.98;100.00;102593.44;10441999;28;20076;-81
2023/05/30 22:28:28;;;;;;;0.40;0.13;;;;;;;19.27;100.00;102603.50;10429365;28;20514;-82
2023/05/30 22:33:30;;;;;;;0.20;0.20;;;;;;;18.78;100.00;102592.16;10431631;28;20056;-81
2023/05/30 22:38:32;;;;;;;0.10;0.10;;;;;;;19.16;100.00;102603.31;10456793;28;20597;-81
2023/05/30 22:43:33;;;;;;;0.10;0.03;;;;;;;19.01;100.00;102603.94;10443538;28;20053;-81
2023/05/30 22:48:35;;;;;;;0.90;0.20;;;;;;;19.03;100.00;102602.22;10434919;28;20049;-81
2023/05/30 22:53:37;;;;;;;0.15;0.13;;;;;;;18.77;100.00;102599.09;10455116;28;20053;-81
2023/05/30 22:58:38;;;;;;;0.20;0.13;;;;;;;18.46;100.00;102606.34;10452735;28;20041;-82
2023/05/30 23:03:40;;;;;;;0.30;0.13;;;;;;;19.13;100.00;102608.50;10446514;28;20037;-81
2023/05/30 23:08:41;;;;;;;0.10;0.10;;;;;;;18.88;100.00;102604.53;10450404;28;20040;-82